Time;durP1;ratioP1;P1;durP2;ratioP2;P2;SDS_P1;SDS_P2;PMS_P1;PMS_P2;Temp;Humidity;BMP_temperature;BMP_pressure;BME280_temperature;BME280_humidity;BME280_pressure;Samples;Min_cycle;Max_cycle;Signal;HPM_P1;HPM_P2
2024/04/13 00:02:17;;;;;;;11.05;7.18;;;;;;;17.18;54.48;95865.06;5447392;26;20005;-78
2024/04/13 00:04:43;;;;;;;10.82;7.90;;;;;;;17.15;54.56;95858.44;5448151;26;19999;-78
2024/04/13 00:07:08;;;;;;;9.20;7.47;;;;;;;17.13;54.54;95860.88;5448866;26;20063;-77
2024/04/13 00:09:33;;;;;;;11.77;7.25;;;;;;;17.11;54.60;95852.25;5416776;26;20010;-76
2024/04/13 00:11:59;;;;;;;12.63;7.95;;;;;;;17.15;54.43;95855.66;5447688;26;19999;-77
2024/04/13 00:14:24;;;;;;;10.52;7.70;;;;;;;17.11;54.48;95852.25;5417270;26;20002;-77
2024/04/13 00:16:50;;;;;;;11.40;7.70;;;;;;;17.12;54.36;95853.00;5417862;26;19994;-77
2024/04/13 00:19:15;;;;;;;11.10;7.35;;;;;;;17.07;54.55;95846.03;5449096;26;20007;-76
2024/04/13 00:21:41;;;;;;;10.45;7.65;;;;;;;17.10;54.29;95849.94;5448474;26;20005;-77
2024/04/13 00:24:07;;;;;;;13.10;7.65;;;;;;;17.14;54.27;95848.53;5447525;26;19998;-78
2024/04/13 00:26:34;;;;;;;12.60;7.90;;;;;;;17.11;54.31;95843.91;5448028;26;20310;-78
2024/04/13 00:28:59;;;;;;;9.02;7.40;;;;;;;17.20;54.14;95848.72;5447368;26;20010;-78
2024/04/13 00:31:25;;;;;;;9.93;7.30;;;;;;;17.17;54.26;95849.63;5446577;26;19995;-76
2024/04/13 00:33:51;;;;;;;10.65;7.68;;;;;;;17.20;54.23;95841.16;5447785;26;20324;-76
2024/04/13 00:36:18;;;;;;;12.40;7.45;;;;;;;17.13;54.73;95849.00;5446947;26;19999;-76
2024/04/13 00:38:43;;;;;;;12.95;7.93;;;;;;;17.10;54.63;95849.94;5416812;26;20010;-76
2024/04/13 00:41:09;;;;;;;8.90;8.00;;;;;;;17.09;54.75;95849.16;5449084;26;19994;-78
2024/04/13 00:43:35;;;;;;;8.35;7.55;;;;;;;17.09;54.91;95845.56;5446394;26;20120;-77
2024/04/13 00:46:07;;;;;;;12.68;7.97;;;;;;;17.05;54.84;95848.50;5417234;26;20005;-77
2024/04/13 00:48:36;;;;;;;10.52;7.60;;;;;;;17.02;55.16;95845.88;5446898;26;20408;-79
2024/04/13 00:51:04;;;;;;;9.70;7.43;;;;;;;17.03;55.13;95848.19;5446903;26;19994;-77
2024/04/13 00:53:33;;;;;;;9.93;7.60;;;;;;;17.06;55.00;95852.84;5446289;26;20009;-77
2024/04/13 00:56:00;;;;;;;8.32;7.53;;;;;;;17.01;55.12;95847.88;5416955;26;19994;-78
2024/04/13 00:58:27;;;;;;;11.75;7.97;;;;;;;16.95;55.32;95849.72;5416935;26;20348;-78
2024/04/13 01:00:56;;;;;;;8.63;7.60;;;;;;;16.94;55.49;95851.72;5446318;26;19995;-77
2024/04/13 01:03:24;;;;;;;11.00;7.45;;;;;;;16.92;55.50;95847.84;5417358;26;20010;-77
2024/04/13 01:05:50;;;;;;;11.27;7.82;;;;;;;16.92;55.54;95850.63;5445533;26;20422;-78
2024/04/13 01:08:15;;;;;;;8.95;8.05;;;;;;;16.90;55.52;95848.28;5447361;26;19995;-77
2024/04/13 01:10:41;;;;;;;9.73;7.72;;;;;;;16.83;55.51;95847.81;5416380;26;20006;-76
2024/04/13 01:13:08;;;;;;;9.65;7.70;;;;;;;16.79;55.93;95849.94;5446848;26;19999;-77
2024/04/13 01:15:36;;;;;;;9.27;7.47;;;;;;;16.76;55.81;95848.09;5446090;26;20009;-78
2024/04/13 01:18:10;;;;;;;10.02;7.95;;;;;;;16.69;55.79;95849.09;5446081;26;19999;-76
2024/04/13 01:20:40;;;;;;;9.52;7.43;;;;;;;16.63;55.88;95846.16;5446485;26;20003;-77
2024/04/13 01:23:06;;;;;;;9.75;7.88;;;;;;;16.63;55.84;95848.13;5446280;26;20007;-78
2024/04/13 01:25:32;;;;;;;10.02;7.95;;;;;;;16.57;55.82;95850.72;5416456;26;20595;-78
2024/04/13 01:27:58;;;;;;;11.88;8.52;;;;;;;16.56;55.88;95846.41;5446106;26;20067;-78
2024/04/13 01:30:23;;;;;;;11.63;7.88;;;;;;;16.55;55.95;95853.19;5448087;26;20470;-77
2024/04/13 01:32:50;;;;;;;10.35;8.27;;;;;;;16.49;56.11;95846.66;5447537;26;19995;-76
2024/04/13 01:35:16;;;;;;;12.20;8.18;;;;;;;16.40;56.33;95843.81;5445662;26;20023;-77
2024/04/13 01:37:42;;;;;;;10.70;8.23;;;;;;;16.38;56.41;95847.06;5447769;26;20068;-77
2024/04/13 01:40:08;;;;;;;10.40;7.90;;;;;;;16.34;56.53;95843.63;5415917;26;20469;-77
2024/04/13 01:42:35;;;;;;;12.52;8.50;;;;;;;16.31;56.86;95844.56;5445704;26;20022;-78
2024/04/13 01:45:00;;;;;;;10.45;8.15;;;;;;;16.29;56.57;95846.25;5445517;26;20462;-77
2024/04/13 01:47:26;;;;;;;11.00;8.23;;;;;;;16.23;56.42;95853.56;5447508;26;20079;-76
2024/04/13 01:49:52;;;;;;;9.68;8.25;;;;;;;16.20;56.71;95833.84;5445241;26;20111;-78
2024/04/13 01:52:17;;;;;;;11.35;8.55;;;;;;;16.15;56.78;95844.75;5445919;26;19999;-78
2024/04/13 01:54:42;;;;;;;12.00;8.40;;;;;;;16.14;56.76;95838.44;5445359;26;20309;-78
2024/04/13 01:57:08;;;;;;;13.65;8.88;;;;;;;16.11;56.84;95839.31;5447378;26;20006;-76
2024/04/13 01:59:34;;;;;;;12.52;8.55;;;;;;;16.04;56.79;95834.03;5445394;26;20452;-79
2024/04/13 02:01:59;;;;;;;14.48;9.20;;;;;;;16.05;56.77;95835.59;5445252;26;20009;-77
2024/04/13 02:04:25;;;;;;;13.32;8.82;;;;;;;16.06;56.89;95839.16;5445646;26;20298;-78
2024/04/13 02:06:51;;;;;;;14.10;8.85;;;;;;;16.02;56.94;95830.94;5446891;26;20134;-77
2024/04/13 02:09:18;;;;;;;19.63;9.23;;;;;;;15.99;56.95;95836.63;5445784;26;20490;-77
2024/04/13 02:11:46;;;;;;;18.65;9.80;;;;;;;15.91;56.83;95830.56;5447337;26;20110;-76
2024/04/13 02:14:12;;;;;;;13.65;9.55;;;;;;;15.87;57.18;95830.66;5447460;26;20006;-76
2024/04/13 02:16:38;;;;;;;15.07;9.52;;;;;;;15.89;57.13;95827.47;5444682;26;20464;-77
2024/04/13 02:19:06;;;;;;;20.90;9.98;;;;;;;15.85;57.34;95829.59;5445113;26;19999;-76
2024/04/13 02:21:31;;;;;;;16.83;9.73;;;;;;;15.85;57.44;95832.34;5416075;26;20003;-76
2024/04/13 02:23:57;;;;;;;18.88;9.85;;;;;;;15.81;57.59;95831.69;5447095;26;19995;-76
2024/04/13 02:26:22;;;;;;;23.15;9.55;;;;;;;15.76;57.65;95829.50;5445688;26;20365;-77
2024/04/13 02:28:48;;;;;;;19.20;9.68;;;;;;;15.74;57.73;95831.97;5444818;26;20006;-76
2024/04/13 02:31:13;;;;;;;47.97;14.43;;;;;;;15.69;57.79;95833.28;5447125;26;19995;-77
2024/04/13 02:33:39;;;;;;;39.38;12.85;;;;;;;15.65;58.05;95838.19;5415356;26;20002;-76
2024/04/13 02:36:05;;;;;;;32.45;12.57;;;;;;;15.67;58.04;95827.44;5446546;26;20011;-77
2024/04/13 02:38:31;;;;;;;36.58;11.65;;;;;;;15.56;57.90;95827.78;5415416;26;20433;-77
2024/04/13 02:40:58;;;;;;;24.85;10.38;;;;;;;15.62;58.25;95836.28;5445090;26;20313;-77
2024/04/13 02:43:24;;;;;;;23.80;10.57;;;;;;;15.59;58.38;95832.41;5415424;26;20039;-77
2024/04/13 02:45:49;;;;;;;20.90;9.77;;;;;;;15.52;58.44;95834.66;5444749;26;20280;-77
2024/04/13 02:48:15;;;;;;;24.95;10.10;;;;;;;15.53;58.17;95834.19;5444959;26;20027;-78
2024/04/13 02:50:40;;;;;;;20.52;9.95;;;;;;;15.51;58.19;95828.34;5446466;26;20023;-76
2024/04/13 02:53:06;;;;;;;27.98;11.30;;;;;;;15.51;58.43;95847.72;5414691;26;19995;-76
2024/04/13 02:55:31;;;;;;;25.90;10.52;;;;;;;15.43;58.55;95840.13;5444677;26;20006;-77
2024/04/13 02:57:56;;;;;;;24.25;11.20;;;;;;;15.44;58.41;95844.44;5443981;26;20006;-77
2024/04/13 03:00:22;;;;;;;20.67;9.82;;;;;;;15.42;58.37;95844.84;5446646;26;19995;-77
2024/04/13 03:02:47;;;;;;;23.77;10.30;;;;;;;15.38;58.77;95845.00;5444308;26;20064;-75
2024/04/13 03:05:14;;;;;;;19.10;9.82;;;;;;;15.39;58.71;95848.53;5446437;26;20005;-75
2024/04/13 03:07:39;;;;;;;22.95;10.48;;;;;;;15.38;58.49;95841.44;5443912;26;20005;-76
2024/04/13 03:10:06;;;;;;;15.35;9.55;;;;;;;15.35;58.81;95845.09;5444268;26;19999;-76
2024/04/13 03:12:34;;;;;;;16.13;10.77;;;;;;;15.29;58.76;95847.66;5444490;26;19996;-78
2024/04/13 03:15:00;;;;;;;13.93;10.02;;;;;;;15.26;58.66;95850.56;5444006;26;20013;-77
2024/04/13 03:17:25;;;;;;;23.05;10.20;;;;;;;15.26;58.62;95847.78;5414581;26;19999;-77
2024/04/13 03:19:51;;;;;;;16.95;10.10;;;;;;;15.22;58.43;95841.59;5445767;26;20063;-77
2024/04/13 03:22:18;;;;;;;14.50;9.70;;;;;;;15.18;58.38;95843.69;5446222;26;20005;-76
2024/04/13 03:24:44;;;;;;;17.70;9.40;;;;;;;15.16;58.48;95846.13;5444255;26;20063;-77
2024/04/13 03:27:10;;;;;;;19.73;9.95;;;;;;;15.16;58.42;95846.13;5443627;26;20010;-77
2024/04/13 03:29:36;;;;;;;20.58;10.60;;;;;;;15.10;58.49;95841.16;5443793;26;20418;-77
2024/04/13 03:32:01;;;;;;;24.02;10.10;;;;;;;15.11;58.53;95850.25;5444238;26;20002;-76
2024/04/13 03:34:27;;;;;;;18.85;10.30;;;;;;;15.09;58.78;95850.69;5444871;26;20085;-76
2024/04/13 03:36:53;;;;;;;20.23;9.73;;;;;;;15.04;58.92;95848.47;5444222;26;20386;-77
2024/04/13 03:39:21;;;;;;;21.50;9.88;;;;;;;15.01;59.16;95843.03;5444454;26;20009;-76
2024/04/13 03:41:49;;;;;;;17.08;9.95;;;;;;;15.07;59.32;95847.56;5444144;26;19995;-76
2024/04/13 03:44:15;;;;;;;19.40;9.45;;;;;;;15.07;59.43;95846.78;5444120;26;20017;-77
2024/04/13 03:46:40;;;;;;;17.02;10.75;;;;;;;15.05;59.47;95850.03;5444627;26;19995;-76
2024/04/13 03:49:09;;;;;;;19.60;10.85;;;;;;;15.07;59.46;95858.66;5446069;26;20091;-76
2024/04/13 03:51:34;;;;;;;18.30;10.52;;;;;;;15.00;59.68;95853.34;5444516;26;19998;-76
2024/04/13 03:54:00;;;;;;;12.63;9.23;;;;;;;15.00;59.50;95863.66;5413615;26;20001;-76
2024/04/13 03:56:26;;;;;;;14.20;10.38;;;;;;;15.01;59.45;95863.19;5444325;26;20068;-77
2024/04/13 03:58:52;;;;;;;16.48;9.30;;;;;;;15.01;59.33;95862.41;5413704;26;20312;-76
2024/04/13 04:01:17;;;;;;;15.70;9.23;;;;;;;14.97;59.33;95873.63;5444003;26;20023;-76
2024/04/13 04:03:42;;;;;;;20.80;9.55;;;;;;;14.97;59.15;95870.09;5413665;26;20009;-76
2024/04/13 04:06:08;;;;;;;18.02;9.27;;;;;;;14.94;59.25;95880.03;5443931;26;19999;-78
2024/04/13 04:08:33;;;;;;;13.85;9.60;;;;;;;14.91;59.49;95872.63;5446207;26;19998;-76
2024/04/13 04:10:59;;;;;;;12.02;9.15;;;;;;;14.93;59.60;95884.03;5443826;26;19995;-77
2024/04/13 04:13:24;;;;;;;17.33;9.75;;;;;;;14.88;59.24;95884.56;5444201;26;20013;-76
2024/04/13 04:15:51;;;;;;;15.45;9.15;;;;;;;14.91;59.61;95889.25;5445307;26;20052;-77
2024/04/13 04:18:17;;;;;;;12.15;9.43;;;;;;;14.94;59.52;95891.09;5445809;26;20003;-76
2024/04/13 04:20:45;;;;;;;17.98;8.88;;;;;;;14.95;59.46;95891.88;5445138;26;20064;-76
2024/04/13 04:23:11;;;;;;;13.82;8.30;;;;;;;14.91;59.39;95892.00;5443489;26;20045;-76
2024/04/13 04:25:36;;;;;;;10.90;9.77;;;;;;;14.94;59.43;95899.41;5443936;26;20077;-77
2024/04/13 04:28:02;;;;;;;13.50;10.15;;;;;;;14.98;59.46;95905.63;5444965;26;20108;-78
2024/04/13 04:30:27;;;;;;;13.73;9.70;;;;;;;15.01;59.38;95899.19;5443648;26;20026;-75
2024/04/13 04:32:53;;;;;;;16.00;10.07;;;;;;;15.08;59.46;95904.53;5413153;26;20477;-77
2024/04/13 04:35:18;;;;;;;18.80;10.18;;;;;;;15.05;59.63;95893.56;5443589;26;20005;-78
2024/04/13 04:37:44;;;;;;;19.65;9.98;;;;;;;15.17;59.67;95897.53;5444291;26;19995;-77
2024/04/13 04:40:09;;;;;;;12.15;10.25;;;;;;;15.25;60.08;95885.78;5445971;26;20003;-77
2024/04/13 04:42:35;;;;;;;17.67;10.75;;;;;;;15.32;60.79;95890.34;5448907;26;20010;-77
2024/04/13 04:45:01;;;;;;;16.58;10.68;;;;;;;15.40;61.01;95891.66;5448273;26;19994;-78
2024/04/13 04:47:27;;;;;;;14.40;10.63;;;;;;;15.43;61.72;95890.75;5447313;26;20433;-78
2024/04/13 04:49:52;;;;;;;13.98;10.23;;;;;;;15.51;61.77;95891.28;5446770;26;19995;-78
2024/04/13 04:52:18;;;;;;;15.55;10.32;;;;;;;15.53;62.06;95897.16;5447100;26;20118;-78
2024/04/13 04:54:46;;;;;;;13.75;10.10;;;;;;;15.52;62.00;95895.63;5446006;26;19994;-77
2024/04/13 04:57:11;;;;;;;12.13;9.45;;;;;;;15.51;62.19;95891.28;5447226;26;19991;-78
2024/04/13 04:59:38;;;;;;;14.30;10.60;;;;;;;15.66;61.95;95892.41;5446660;26;20054;-78
2024/04/13 05:02:03;;;;;;;14.05;9.60;;;;;;;15.74;61.67;95890.16;5446379;26;20009;-77
2024/04/13 05:04:29;;;;;;;16.63;10.32;;;;;;;15.78;61.61;95891.59;5446773;26;19990;-77
2024/04/13 05:06:54;;;;;;;12.80;9.68;;;;;;;15.90;61.26;95892.78;5445835;26;19998;-77
2024/04/13 05:09:20;;;;;;;10.88;8.98;;;;;;;15.93;61.08;95895.41;5446480;26;20045;-77
2024/04/13 05:11:45;;;;;;;14.30;10.48;;;;;;;15.86;61.14;95881.03;5445864;26;20013;-77
2024/04/13 05:14:12;;;;;;;16.63;10.07;;;;;;;15.91;60.72;95888.78;5446555;26;20375;-77
2024/04/13 05:16:38;;;;;;;13.85;10.40;;;;;;;15.93;61.02;95884.31;5445966;26;19991;-77
2024/04/13 05:19:03;;;;;;;11.65;9.27;;;;;;;16.00;60.79;95894.41;5445681;26;20007;-76
2024/04/13 05:21:29;;;;;;;14.38;9.40;;;;;;;16.05;60.75;95901.38;5448018;26;19995;-76
2024/04/13 05:23:55;;;;;;;17.27;10.05;;;;;;;16.14;60.60;95901.47;5445751;26;20006;-78
2024/04/13 05:26:21;;;;;;;12.70;10.35;;;;;;;16.26;60.58;95899.84;5447867;26;19999;-77
2024/04/13 05:28:46;;;;;;;12.73;10.13;;;;;;;16.31;60.46;95890.94;5415388;26;20002;-77
2024/04/13 05:31:12;;;;;;;13.90;9.82;;;;;;;16.36;60.21;95896.69;5446352;26;19998;-76
2024/04/13 05:33:38;;;;;;;18.27;10.02;;;;;;;16.43;60.05;95881.78;5445689;26;20086;-77
2024/04/13 05:36:04;;;;;;;11.90;9.68;;;;;;;16.53;59.61;95877.06;5447446;26;19999;-76
2024/04/13 05:38:30;;;;;;;15.52;9.23;;;;;;;16.46;59.72;95880.91;5445728;26;19998;-76
2024/04/13 05:40:56;;;;;;;15.43;9.20;;;;;;;16.57;59.39;95897.91;5447277;26;19998;-77
2024/04/13 05:43:22;;;;;;;12.07;9.63;;;;;;;16.60;59.08;95885.91;5445893;26;19994;-76
2024/04/13 05:45:47;;;;;;;12.85;9.80;;;;;;;16.68;59.04;95894.72;5445137;26;20033;-76
2024/04/13 05:48:12;;;;;;;13.75;9.38;;;;;;;16.76;58.80;95903.63;5446351;26;20022;-77
2024/04/13 05:50:38;;;;;;;12.75;9.93;;;;;;;16.79;58.80;95897.91;5445866;26;20005;-75
2024/04/13 05:53:04;;;;;;;14.40;9.65;;;;;;;16.81;58.53;95900.25;5445720;26;20048;-77
2024/04/13 05:55:30;;;;;;;13.65;9.57;;;;;;;16.81;58.57;95897.47;5416043;26;20447;-76
2024/04/13 05:57:55;;;;;;;14.50;9.85;;;;;;;16.84;58.76;95897.31;5447040;26;19995;-77
2024/04/13 06:00:21;;;;;;;12.90;9.15;;;;;;;16.89;58.28;95904.28;5445681;26;19991;-77
2024/04/13 06:02:47;;;;;;;12.13;8.55;;;;;;;16.89;58.43;95904.28;5446720;26;20067;-76
2024/04/13 06:05:12;;;;;;;9.95;8.05;;;;;;;16.85;58.62;95901.66;5447343;26;20027;-76
2024/04/13 06:07:38;;;;;;;15.05;9.10;;;;;;;16.87;58.48;95898.44;5446740;26;19999;-76
2024/04/13 06:10:07;;;;;;;10.65;8.52;;;;;;;16.88;58.55;95908.31;5445673;26;20002;-76
2024/04/13 06:12:32;;;;;;;12.65;8.57;;;;;;;16.90;58.29;95901.06;5447248;26;20003;-76
2024/04/13 06:14:58;;;;;;;10.48;8.48;;;;;;;17.00;58.36;95899.09;5446948;26;19995;-78
2024/04/13 06:17:23;;;;;;;11.73;8.05;;;;;;;17.02;57.99;95904.19;5444995;26;19994;-77
2024/04/13 06:19:48;;;;;;;12.50;8.13;;;;;;;16.97;57.89;95897.22;5445237;26;19995;-77
2024/04/13 06:22:14;;;;;;;9.98;7.72;;;;;;;17.10;57.66;95897.94;5447266;26;20469;-77
2024/04/13 06:24:40;;;;;;;9.55;8.15;;;;;;;17.12;57.37;95894.69;5414888;26;19995;-77
2024/04/13 06:27:05;;;;;;;15.27;7.72;;;;;;;17.16;57.63;95893.31;5445331;26;19999;-78
2024/04/13 06:29:31;;;;;;;13.40;7.38;;;;;;;17.23;56.99;95903.38;5444991;26;20006;-77
2024/04/13 06:31:56;;;;;;;12.80;7.72;;;;;;;17.30;56.90;95905.09;5445490;26;20357;-77
2024/04/13 06:34:22;;;;;;;10.45;7.15;;;;;;;17.28;56.76;95894.44;5445260;26;20013;-78
2024/04/13 06:36:48;;;;;;;12.25;7.88;;;;;;;17.33;56.68;95904.97;5444541;26;20546;-78
2024/04/13 06:39:14;;;;;;;10.65;7.05;;;;;;;17.37;56.51;95902.03;5414936;26;20009;-78
2024/04/13 06:41:40;;;;;;;7.90;6.97;;;;;;;17.43;56.17;95900.19;5446622;26;20481;-78
2024/04/13 06:44:06;;;;;;;11.07;8.02;;;;;;;17.45;56.01;95886.63;5444720;26;20072;-77
2024/04/13 06:46:31;;;;;;;11.20;7.28;;;;;;;17.56;55.79;95900.84;5443871;26;19999;-77
2024/04/13 06:48:57;;;;;;;13.25;7.75;;;;;;;17.56;55.71;95895.31;5414242;26;19991;-78
2024/04/13 06:51:22;;;;;;;10.43;7.63;;;;;;;17.65;55.92;95906.41;5446270;26;20003;-78
2024/04/13 06:53:48;;;;;;;12.63;7.03;;;;;;;17.68;55.65;95904.75;5443914;26;20002;-77
2024/04/13 06:56:14;;;;;;;10.48;7.35;;;;;;;17.70;55.70;95914.16;5444426;26;19994;-79
2024/04/13 06:58:40;;;;;;;11.52;7.30;;;;;;;17.75;55.49;95904.47;5445972;26;20018;-76
2024/04/13 07:01:05;;;;;;;13.98;8.00;;;;;;;17.80;55.31;95901.09;5444331;26;20006;-77
2024/04/13 07:03:31;;;;;;;12.13;7.30;;;;;;;17.86;55.05;95904.03;5414041;26;20322;-78
2024/04/13 07:06:00;;;;;;;10.13;7.25;;;;;;;17.95;54.93;95896.47;5414624;26;20002;-75
2024/04/13 07:08:28;;;;;;;16.10;7.47;;;;;;;18.01;54.93;95907.78;5446240;26;20002;-78
2024/04/13 07:10:55;;;;;;;13.15;7.15;;;;;;;18.07;54.60;95900.34;5444982;26;19995;-76
2024/04/13 07:13:21;;;;;;;11.23;7.05;;;;;;;18.20;53.81;95892.63;5444403;26;20010;-78
2024/04/13 07:15:47;;;;;;;11.43;6.70;;;;;;;18.32;53.20;95907.63;5445900;26;19999;-79
2024/04/13 07:18:14;;;;;;;10.85;7.10;;;;;;;18.41;52.88;95892.91;5444495;26;19995;-78
2024/04/13 07:20:40;;;;;;;7.53;6.82;;;;;;;18.56;52.59;95891.81;5444183;26;20007;-78
2024/04/13 07:23:06;;;;;;;7.88;6.53;;;;;;;18.69;52.14;95891.66;5444290;26;20343;-78
2024/04/13 07:25:32;;;;;;;10.90;6.22;;;;;;;18.82;51.84;95894.28;5444304;26;20059;-76
2024/04/13 07:27:57;;;;;;;15.23;6.35;;;;;;;19.00;51.08;95885.09;5444255;26;20067;-78
2024/04/13 07:30:22;;;;;;;13.13;7.22;;;;;;;19.11;50.94;95893.72;5445967;26;20446;-77
2024/04/13 07:32:48;;;;;;;10.45;5.93;;;;;;;19.16;50.97;95892.31;5446141;26;19999;-77
2024/04/13 07:35:14;;;;;;;10.52;5.43;;;;;;;19.28;50.32;95883.75;5414012;26;20010;-77
2024/04/13 07:37:39;;;;;;;15.75;6.03;;;;;;;19.45;49.86;95888.94;5413667;26;19999;-77
2024/04/13 07:40:05;;;;;;;10.95;5.68;;;;;;;19.55;49.53;95884.84;5445361;26;19995;-77
2024/04/13 07:42:30;;;;;;;10.43;5.57;;;;;;;19.67;48.86;95886.69;5443385;26;19998;-78
2024/04/13 07:44:56;;;;;;;11.23;6.47;;;;;;;19.70;48.41;95880.13;5445205;26;20444;-78
2024/04/13 07:47:21;;;;;;;10.65;6.00;;;;;;;19.81;48.26;95882.41;5442957;26;19998;-77
2024/04/13 07:49:46;;;;;;;11.82;6.13;;;;;;;19.95;47.94;95886.47;5443396;26;20005;-77
2024/04/13 07:52:12;;;;;;;7.85;5.88;;;;;;;20.06;47.22;95884.69;5445080;26;20002;-78
2024/04/13 07:54:37;;;;;;;6.47;4.75;;;;;;;20.22;47.00;95879.91;5444311;26;20330;-78
2024/04/13 07:57:03;;;;;;;14.57;5.60;;;;;;;20.18;46.98;95857.75;5445205;26;20010;-78
2024/04/13 07:59:28;;;;;;;8.13;5.30;;;;;;;20.35;46.43;95869.25;5445440;26;19998;-77
2024/04/13 08:01:54;;;;;;;23.60;7.60;;;;;;;20.47;45.87;95873.06;5445533;26;19999;-78
2024/04/13 08:04:19;;;;;;;10.90;5.43;;;;;;;20.50;45.36;95872.88;5445253;26;20110;-77
2024/04/13 08:06:45;;;;;;;6.57;4.97;;;;;;;20.66;45.18;95872.41;5443729;26;19995;-77
2024/04/13 08:09:10;;;;;;;14.73;4.82;;;;;;;20.76;45.03;95870.31;5445432;26;20014;-78
2024/04/13 08:11:36;;;;;;;11.30;4.45;;;;;;;20.93;43.95;95864.97;5444020;26;20374;-77
2024/04/13 08:14:02;;;;;;;9.68;4.82;;;;;;;20.97;43.66;95870.38;5446186;26;19995;-79
2024/04/13 08:16:27;;;;;;;7.63;4.65;;;;;;;21.09;43.11;95866.50;5449220;26;20021;-77
2024/04/13 08:18:53;;;;;;;8.77;5.38;;;;;;;21.07;43.19;95863.44;5448309;26;20006;-77
2024/04/13 08:21:18;;;;;;;11.80;5.40;;;;;;;21.11;43.58;95864.78;5447274;26;20005;-77
2024/04/13 08:23:44;;;;;;;8.10;5.20;;;;;;;21.23;43.78;95865.72;5417329;26;20007;-77
2024/04/13 08:26:09;;;;;;;8.25;5.30;;;;;;;21.28;42.88;95847.50;5446339;26;20006;-77
2024/04/13 08:28:35;;;;;;;7.88;4.80;;;;;;;21.48;43.35;95856.72;5449184;26;20041;-78
2024/04/13 08:31:04;;;;;;;8.35;5.22;;;;;;;21.64;42.18;95847.00;5446511;26;19995;-78
2024/04/13 08:33:30;;;;;;;10.15;5.32;;;;;;;21.80;41.87;95844.94;5447259;26;20370;-78
2024/04/13 08:36:13;;;;;;;6.50;4.63;;;;;;;21.95;41.45;95849.19;5448208;26;19994;-77
2024/04/13 08:38:39;;;;;;;9.80;5.07;;;;;;;22.16;40.64;95840.81;5448266;26;20400;-77
2024/04/13 08:41:47;;;;;;;8.57;4.82;;;;;;;22.41;39.74;95839.28;5446844;26;19995;-78
2024/04/13 08:44:13;;;;;;;6.97;4.13;;;;;;;22.67;38.46;95836.50;5436521;26;20006;-77
2024/04/13 08:46:39;;;;;;;11.20;5.00;;;;;;;22.79;38.60;95827.69;5447696;26;19999;-79
2024/04/13 08:49:05;;;;;;;5.72;4.50;;;;;;;22.99;38.47;95821.25;5446754;26;20351;-76
2024/04/13 08:51:31;;;;;;;9.75;4.45;;;;;;;23.20;37.83;95829.56;5416817;26;19994;-77
2024/04/13 08:53:57;;;;;;;11.43;4.50;;;;;;;23.37;38.00;95827.66;5446634;26;20044;-77
2024/04/13 08:56:24;;;;;;;10.02;5.25;;;;;;;23.53;37.85;95826.22;5416131;26;20165;-79
2024/04/13 08:58:52;;;;;;;8.45;4.65;;;;;;;23.76;36.47;95825.09;5416704;26;19995;-78
2024/04/13 09:01:24;;;;;;;9.35;5.03;;;;;;;24.04;35.62;95835.69;5446357;26;20444;-78
2024/04/13 09:03:50;;;;;;;7.35;4.07;;;;;;;24.25;35.31;95830.63;5446830;26;20422;-78
2024/04/13 09:06:15;;;;;;;8.73;4.03;;;;;;;24.46;34.26;95823.56;5416071;26;20439;-77
2024/04/13 09:08:41;;;;;;;8.85;3.60;;;;;;;24.70;33.47;95825.13;5446533;26;20052;-77
2024/04/13 09:11:08;;;;;;;7.35;4.00;;;;;;;24.93;33.14;95821.06;5446283;26;19991;-78
2024/04/13 09:13:35;;;;;;;6.03;3.40;;;;;;;25.18;32.42;95826.97;5416794;26;19990;-78
2024/04/13 09:16:01;;;;;;;8.25;3.92;;;;;;;25.34;31.73;95814.91;5416440;26;20127;-78
2024/04/13 09:18:27;;;;;;;7.10;3.60;;;;;;;25.59;31.84;95821.53;5445912;26;20005;-78
2024/04/13 09:20:53;;;;;;;7.25;3.55;;;;;;;25.81;31.84;95804.59;5448470;26;20334;-78
2024/04/13 09:23:19;;;;;;;9.43;3.60;;;;;;;26.09;31.65;95812.94;5415894;26;20006;-79
2024/04/13 09:25:44;;;;;;;5.82;3.47;;;;;;;26.22;31.25;95795.47;5444854;26;19991;-79
2024/04/13 09:28:10;;;;;;;6.43;3.20;;;;;;;26.46;30.29;95808.94;5447314;26;20318;-79
2024/04/13 09:30:36;;;;;;;7.32;3.28;;;;;;;26.62;29.91;95807.28;5445087;26;20022;-76
2024/04/13 09:33:08;;;;;;;8.75;3.70;;;;;;;26.89;30.12;95808.34;5415881;26;19994;-76
2024/04/13 09:35:34;;;;;;;7.00;3.83;;;;;;;27.14;29.59;95797.94;5444846;26;20112;-76
2024/04/13 09:37:59;;;;;;;8.70;4.00;;;;;;;27.36;29.06;95794.16;5445741;26;20438;-76
2024/04/13 09:40:31;;;;;;;7.82;3.58;;;;;;;27.60;29.26;95794.16;5415335;26;20006;-76
2024/04/13 09:42:56;;;;;;;7.68;3.72;;;;;;;27.88;29.30;95796.69;5445515;26;20001;-77
2024/04/13 09:45:22;;;;;;;8.10;4.20;;;;;;;27.99;28.64;95785.25;5445439;26;19999;-76
2024/04/13 09:47:47;;;;;;;5.60;3.53;;;;;;;28.04;27.55;95795.72;5445277;26;20006;-75
2024/04/13 09:50:12;;;;;;;4.30;3.22;;;;;;;28.28;28.29;95783.56;5415583;26;20324;-77
2024/04/13 09:52:38;;;;;;;8.25;3.78;;;;;;;28.40;27.53;95784.22;5444950;26;19999;-80
2024/04/13 09:55:04;;;;;;;9.43;3.95;;;;;;;28.47;27.18;95785.66;5445091;26;20390;-77
2024/04/13 09:57:29;;;;;;;8.13;4.15;;;;;;;28.48;26.71;95793.59;5444584;26;20006;-77
2024/04/13 09:59:55;;;;;;;8.52;3.70;;;;;;;28.58;26.73;95791.91;5447219;26;20117;-78
2024/04/13 10:02:21;;;;;;;12.60;4.90;;;;;;;28.78;26.45;95784.91;5445138;26;20007;-79
2024/04/13 10:04:47;;;;;;;7.72;4.55;;;;;;;28.78;26.63;95782.06;5446825;26;19998;-78
2024/04/13 10:07:13;;;;;;;7.35;4.20;;;;;;;28.97;26.29;95773.59;5444986;26;20453;-79
2024/04/13 10:09:41;;;;;;;9.10;4.20;;;;;;;29.06;26.13;95781.66;5445564;26;19994;-79
2024/04/13 10:12:08;;;;;;;17.90;4.68;;;;;;;29.30;26.42;95780.72;5445832;26;20010;-78
2024/04/13 10:14:34;;;;;;;8.40;4.20;;;;;;;29.53;25.88;95766.94;5447109;26;20006;-78
2024/04/13 10:17:03;;;;;;;7.28;3.75;;;;;;;29.66;25.67;95765.44;5446296;26;20005;-79
2024/04/13 10:19:28;;;;;;;6.30;3.97;;;;;;;29.80;25.65;95775.44;5445947;26;19995;-79
2024/04/13 10:21:58;;;;;;;6.50;4.25;;;;;;;29.86;25.10;95767.59;5446274;26;20071;-78
2024/04/13 10:24:24;;;;;;;5.30;3.35;;;;;;;30.12;25.58;95761.94;5445791;26;20424;-80
2024/04/13 10:26:51;;;;;;;10.20;3.47;;;;;;;30.25;24.29;95766.81;5445138;26;20195;-80
2024/04/13 10:29:26;;;;;;;8.55;3.13;;;;;;;30.44;24.49;95754.53;5445762;26;20019;-81
2024/04/13 10:31:51;;;;;;;6.35;3.67;;;;;;;30.65;23.63;95761.00;5445163;26;20433;-80
2024/04/13 10:34:24;;;;;;;7.40;3.10;;;;;;;30.57;24.04;95748.81;5445796;26;20414;-79
2024/04/13 10:36:57;;;;;;;4.85;3.20;;;;;;;30.81;24.15;95756.28;5446188;26;20010;-81
2024/04/13 10:39:23;;;;;;;5.22;3.00;;;;;;;31.09;23.92;95738.56;5445684;26;20006;-79
2024/04/13 10:41:48;;;;;;;5.72;3.13;;;;;;;31.35;23.24;95738.38;5444920;26;20002;-79
2024/04/13 10:44:23;;;;;;;7.18;4.05;;;;;;;31.61;23.60;95740.28;5444294;26;20433;-79
2024/04/13 10:46:50;;;;;;;7.45;3.08;;;;;;;31.83;22.54;95733.22;5445419;26;20318;-79
2024/04/13 10:49:17;;;;;;;7.88;4.18;;;;;;;32.07;23.01;95737.69;5443861;26;20013;-78
2024/04/13 10:51:44;;;;;;;6.00;2.88;;;;;;;32.25;22.26;95730.19;5445438;26;20022;-79
2024/04/13 10:54:13;;;;;;;7.82;3.33;;;;;;;32.56;21.92;95718.91;5444077;26;20013;-79
2024/04/13 10:56:39;;;;;;;6.25;2.88;;;;;;;32.94;20.74;95724.69;5445256;26;20361;-79
2024/04/13 10:59:08;;;;;;;7.70;3.85;;;;;;;33.40;20.21;95725.47;5446114;26;19995;-79
2024/04/13 11:01:33;;;;;;;6.25;3.20;;;;;;;33.90;20.44;95719.28;5444458;26;19998;-77
2024/04/13 11:04:05;;;;;;;5.68;3.30;;;;;;;34.53;20.82;95722.84;5446488;26;20071;-78
2024/04/13 11:06:31;;;;;;;5.10;3.13;;;;;;;34.92;18.85;95708.28;5445778;26;20429;-79
2024/04/13 11:08:56;;;;;;;6.22;3.53;;;;;;;35.13;18.33;95712.34;5445092;26;20080;-78
2024/04/13 11:11:25;;;;;;;5.55;3.05;;;;;;;35.06;17.94;95701.75;5444110;26;20005;-79
2024/04/13 11:13:50;;;;;;;5.57;3.30;;;;;;;34.33;18.68;95707.50;5445242;26;20068;-77
2024/04/13 11:16:15;;;;;;;7.38;3.03;;;;;;;33.38;19.62;95707.38;5444182;26;20006;-78
2024/04/13 11:18:41;;;;;;;6.10;3.10;;;;;;;33.03;20.42;95712.72;5414859;26;20011;-76
2024/04/13 11:21:07;;;;;;;4.68;2.55;;;;;;;32.62;21.01;95706.00;5444510;26;20019;-77
2024/04/13 11:23:34;;;;;;;8.98;3.10;;;;;;;32.10;21.95;95713.06;5443891;26;19995;-76